Aquinnah, Massachusetts
Current Conditions -  °F | °C
As of 4:53 PM on Thursday 23 Oct 2014 (Local Time) from KMVY Reporting Station
Light Rain Light Rain  
Wind Chill: 16°   Ceiling: 700
Heat Index: 16°   Visibility: 10mi
Dew Point: 15°   Wind: 9mph
Humidity: 96%   Direction: 360°N
Pressure: 29.47"   Gusts: NA
Location:  41.3536°N, 70.7417°W
Report Text: KMVY 232053Z AUTO 36008KT 10SM -RA BKN007 OVC013 16/15 A2947 RMK AO2 RAB39 CIG 006V010 SLP979 P0000 60022 T01560150 56005
Loading
Personal Weather Stations






























Interactive Weather Map
Tropical Storm Tracking
New forecast layout! Learn more

10-Day Weather Forecast

Advertisements
Track Severe Weather on mobile